createdAt,value
2023-01-27T00:01:13.567Z,8.93
2023-01-27T00:03:43.248Z,9.53
2023-01-27T00:06:18.353Z,10.13
2023-01-27T00:08:47.255Z,10.10
2023-01-27T00:11:39.528Z,12.90
2023-01-27T00:14:08.199Z,9.77
2023-01-27T00:16:43.405Z,8.50
2023-01-27T00:19:13.943Z,8.57
2023-01-27T00:22:06.631Z,10.33
2023-01-27T00:24:37.621Z,13.87
2023-01-27T00:27:16.506Z,11.50
2023-01-27T00:29:44.916Z,14.10
2023-01-27T00:32:36.428Z,9.03
2023-01-27T00:35:07.275Z,10.37
2023-01-27T00:37:42.585Z,13.30
2023-01-27T00:40:12.968Z,11.77
2023-01-27T00:42:48.467Z,9.13
2023-01-27T00:45:34.492Z,10.47
2023-01-27T00:48:09.437Z,10.43
2023-01-27T00:50:39.373Z,10.33
2023-01-27T00:53:14.444Z,10.30
2023-01-27T00:55:43.754Z,8.43
2023-01-27T00:58:25.495Z,6.63
2023-01-27T01:00:56.240Z,7.53
2023-01-27T01:03:31.637Z,10.40
2023-01-27T01:06:02.835Z,9.63
2023-01-27T01:08:39.499Z,12.30
2023-01-27T01:11:10.410Z,6.67
2023-01-27T01:13:45.525Z,11.63
2023-01-27T01:16:15.876Z,9.93
2023-01-27T01:18:51.513Z,14.27
2023-01-27T01:21:21.969Z,16.53
2023-01-27T01:23:56.549Z,13.87
2023-01-27T01:26:24.922Z,6.70
2023-01-27T01:29:00.517Z,9.87
2023-01-27T01:31:28.777Z,9.33
2023-01-27T01:34:03.578Z,9.67
2023-01-27T01:36:33.568Z,6.73
2023-01-27T01:39:08.434Z,7.90
2023-01-27T01:41:36.886Z,11.33
2023-01-27T01:44:27.450Z,7.70
2023-01-27T01:46:55.944Z,10.30
2023-01-27T01:49:35.486Z,12.27
2023-01-27T01:52:10.633Z,6.13
2023-01-27T01:54:50.662Z,8.00
2023-01-27T01:57:44.565Z,8.47
2023-01-27T02:00:21.615Z,6.77
2023-01-27T02:02:51.572Z,9.57
2023-01-27T02:05:31.616Z,6.93
2023-01-27T02:08:09.378Z,5.63
2023-01-27T02:10:44.522Z,8.53
2023-01-27T02:13:13.008Z,9.97
2023-01-27T02:15:48.644Z,7.37
2023-01-27T02:18:17.282Z,7.10
2023-01-27T02:20:54.713Z,9.17
2023-01-27T02:23:45.712Z,7.87
2023-01-27T02:26:27.688Z,7.67
2023-01-27T02:28:58.443Z,6.93
2023-01-27T02:31:33.605Z,6.40
2023-01-27T02:34:13.520Z,7.57
2023-01-27T02:36:47.995Z,8.20
2023-01-27T02:39:26.713Z,3.63
2023-01-27T02:41:59.077Z,8.40
2023-01-27T02:44:34.709Z,9.57
2023-01-27T02:47:03.176Z,8.07
2023-01-27T02:49:31.432Z,9.17
2023-01-27T02:52:06.821Z,6.47
2023-01-27T02:54:35.274Z,8.33
2023-01-27T02:57:11.550Z,8.37
2023-01-27T02:59:53.648Z,7.63
2023-01-27T03:02:23.242Z,8.47
2023-01-27T03:04:51.755Z,9.40
2023-01-27T03:07:26.562Z,7.97
2023-01-27T03:09:54.821Z,7.10
2023-01-27T03:12:31.589Z,9.37
2023-01-27T03:15:23.658Z,9.27
2023-01-27T03:18:09.509Z,9.33
2023-01-27T03:20:44.740Z,7.57
2023-01-27T03:23:14.288Z,9.87
2023-01-27T03:25:50.732Z,5.07
2023-01-27T03:28:20.693Z,8.03
2023-01-27T03:30:55.893Z,7.70
2023-01-27T03:33:24.711Z,10.10
2023-01-27T03:36:16.797Z,10.67
2023-01-27T03:39:02.671Z,6.97
2023-01-27T03:41:54.648Z,9.73
2023-01-27T03:44:42.076Z,8.03
2023-01-27T03:47:17.671Z,6.40
2023-01-27T03:49:46.994Z,5.60
2023-01-27T03:52:15.505Z,6.13
2023-01-27T03:54:50.999Z,10.47
2023-01-27T03:57:26.040Z,8.13
2023-01-27T04:00:08.600Z,8.13
2023-01-27T04:03:00.821Z,7.00
2023-01-27T04:05:46.796Z,9.03
2023-01-27T04:08:21.799Z,6.07
2023-01-27T04:11:10.485Z,9.53
2023-01-27T04:13:44.820Z,9.07
2023-01-27T04:16:14.833Z,8.10
2023-01-27T04:18:43.777Z,7.57
2023-01-27T04:21:19.699Z,10.03
2023-01-27T04:23:48.253Z,8.77
2023-01-27T04:26:23.651Z,9.77
2023-01-27T04:28:52.188Z,8.27
2023-01-27T04:31:28.826Z,6.37
2023-01-27T04:33:57.948Z,8.60
2023-01-27T04:36:32.683Z,9.90
2023-01-27T04:39:01.278Z,9.70
2023-01-27T04:41:36.662Z,10.07
2023-01-27T04:44:06.572Z,9.80
2023-01-27T04:46:42.780Z,11.73
2023-01-27T04:49:11.465Z,9.03
2023-01-27T04:51:47.486Z,9.70
2023-01-27T04:54:16.371Z,8.73
2023-01-27T04:57:02.838Z,11.10
2023-01-27T04:59:38.079Z,11.50
2023-01-27T05:02:14.865Z,10.27
2023-01-27T05:04:43.466Z,12.50
2023-01-27T05:07:18.636Z,12.93
2023-01-27T05:09:46.900Z,13.70
2023-01-27T05:12:21.673Z,13.90
2023-01-27T05:14:49.993Z,12.30
2023-01-27T05:17:26.824Z,13.60
2023-01-27T05:19:56.122Z,14.10
2023-01-27T05:22:31.661Z,11.70
2023-01-27T05:25:00.305Z,12.97
2023-01-27T05:27:35.682Z,13.53
2023-01-27T05:30:04.530Z,14.87
2023-01-27T05:32:40.680Z,14.83
2023-01-27T05:35:09.687Z,15.13
2023-01-27T05:37:44.698Z,13.47
2023-01-27T05:40:14.290Z,13.77
2023-01-27T05:42:48.824Z,10.63
2023-01-27T05:45:17.332Z,13.10
2023-01-27T05:47:57.850Z,14.33
2023-01-27T05:50:26.343Z,12.50
2023-01-27T05:53:00.835Z,17.03
2023-01-27T05:55:29.452Z,14.90
2023-01-27T05:58:17.876Z,12.20
2023-01-27T06:00:46.806Z,11.93
2023-01-27T06:03:23.720Z,10.57
2023-01-27T06:05:57.406Z,12.37
2023-01-27T06:08:33.784Z,10.33
2023-01-27T06:11:02.111Z,10.17
2023-01-27T06:13:37.781Z,11.70
2023-01-27T06:16:08.823Z,10.40
2023-01-27T06:18:45.878Z,11.07
2023-01-27T06:21:16.208Z,11.57
2023-01-27T06:23:51.792Z,10.67
2023-01-27T06:26:21.509Z,11.43
2023-01-27T06:28:56.793Z,13.70
2023-01-27T06:31:26.248Z,9.70
2023-01-27T06:34:02.844Z,12.40
2023-01-27T06:36:32.856Z,10.53
2023-01-27T06:39:08.223Z,10.10
2023-01-27T06:41:36.796Z,11.70
2023-01-27T06:44:13.027Z,9.40
2023-01-27T06:46:42.533Z,9.03
2023-01-27T06:49:19.922Z,9.30
2023-01-27T06:51:48.402Z,8.63
2023-01-27T06:54:23.950Z,10.70
2023-01-27T06:56:52.540Z,11.57
2023-01-27T06:59:40.751Z,10.47
2023-01-27T07:02:10.419Z,10.00
2023-01-27T07:04:46.773Z,11.80
2023-01-27T07:07:15.230Z,12.83
2023-01-27T07:09:52.932Z,11.07
2023-01-27T07:12:21.601Z,12.17
2023-01-27T07:14:56.958Z,13.50
2023-01-27T07:17:25.668Z,16.73
2023-01-27T07:20:01.831Z,14.83
2023-01-27T07:22:30.283Z,14.47
2023-01-27T07:25:04.764Z,13.50
2023-01-27T07:27:39.822Z,10.40
2023-01-27T07:30:09.603Z,10.33
2023-01-27T07:32:44.880Z,9.77
2023-01-27T07:35:15.067Z,11.57
2023-01-27T07:37:49.796Z,9.13
2023-01-27T07:40:18.669Z,9.10
2023-01-27T07:42:54.135Z,9.90
2023-01-27T07:45:22.791Z,12.47
2023-01-27T07:47:57.889Z,11.17
2023-01-27T07:50:27.948Z,9.17
2023-01-27T07:53:02.957Z,9.50
2023-01-27T07:55:32.110Z,10.47
2023-01-27T07:58:06.848Z,10.53
2023-01-27T08:00:42.028Z,10.47
2023-01-27T08:03:28.992Z,10.90
2023-01-27T08:05:58.747Z,9.73
2023-01-27T08:08:33.881Z,9.70
2023-01-27T08:11:02.792Z,10.20
2023-01-27T08:13:39.023Z,10.60
2023-01-27T08:16:09.751Z,9.80
2023-01-27T08:18:44.980Z,22.13
2023-01-27T08:21:15.337Z,10.50
2023-01-27T08:23:51.001Z,9.43
2023-01-27T08:26:19.935Z,11.20
2023-01-27T08:28:54.812Z,9.00
2023-01-27T08:31:23.182Z,10.03
2023-01-27T08:34:00.898Z,10.03
2023-01-27T08:36:31.106Z,8.60
2023-01-27T08:39:07.004Z,10.00
2023-01-27T08:41:35.664Z,8.37
2023-01-27T08:44:10.817Z,8.50
2023-01-27T08:46:39.350Z,8.63
2023-01-27T08:49:13.839Z,8.00
2023-01-27T08:51:44.371Z,8.67
2023-01-27T08:54:20.012Z,10.17
2023-01-27T08:56:48.579Z,8.03
2023-01-27T08:59:30.121Z,7.63
2023-01-27T09:02:05.315Z,9.03
2023-01-27T09:04:40.061Z,8.27
2023-01-27T09:07:09.896Z,8.30
2023-01-27T09:09:44.849Z,8.57
2023-01-27T09:12:13.300Z,7.93
2023-01-27T09:14:48.035Z,7.53
2023-01-27T09:17:20.092Z,7.70
2023-01-27T09:19:55.012Z,7.47
2023-01-27T09:22:25.205Z,9.30
2023-01-27T09:25:01.921Z,7.73
2023-01-27T09:27:39.298Z,6.53
2023-01-27T09:30:16.323Z,7.83
2023-01-27T09:32:45.027Z,8.13
2023-01-27T09:35:20.069Z,6.60
2023-01-27T09:37:57.938Z,7.77
2023-01-27T09:40:40.083Z,8.47
2023-01-27T09:43:25.478Z,6.50
2023-01-27T09:46:21.990Z,5.70
2023-01-27T09:49:16.936Z,7.00
2023-01-27T09:51:54.564Z,5.67
2023-01-27T09:55:00.919Z,5.80
2023-01-27T09:57:41.218Z,5.60
2023-01-27T10:00:42.260Z,5.13
2023-01-27T10:03:32.800Z,5.90
2023-01-27T10:06:37.926Z,5.33
2023-01-27T10:09:33.030Z,5.60
2023-01-27T10:12:17.984Z,5.47
2023-01-27T10:14:55.960Z,5.50
2023-01-27T10:17:42.065Z,6.10
2023-01-27T10:20:22.624Z,5.47
2023-01-27T10:23:08.065Z,5.27
2023-01-27T10:25:50.810Z,5.60
2023-01-27T10:28:30.914Z,5.40
2023-01-27T10:31:09.037Z,5.57
2023-01-27T10:33:52.447Z,5.77
2023-01-27T10:36:34.945Z,5.37
2023-01-27T10:39:19.025Z,4.83
2023-01-27T10:41:55.144Z,5.20
2023-01-27T10:44:48.940Z,6.07
2023-01-27T10:47:26.959Z,5.33
2023-01-27T10:50:05.992Z,4.63
2023-01-27T10:52:40.220Z,5.27
2023-01-27T10:55:23.978Z,4.73
2023-01-27T10:57:57.533Z,5.63
2023-01-27T11:03:41.564Z,5.07
2023-01-27T11:06:21.887Z,5.67
2023-01-27T11:08:54.513Z,5.17
2023-01-27T11:11:49.008Z,5.50
2023-01-27T11:14:24.014Z,5.00
2023-01-27T11:17:04.026Z,5.20
2023-01-27T11:19:45.842Z,6.97
2023-01-27T11:22:31.007Z,4.80
2023-01-27T11:25:06.305Z,4.20
2023-01-27T11:27:54.947Z,4.10
2023-01-27T11:30:29.497Z,4.50
2023-01-27T11:33:13.027Z,4.63
2023-01-27T11:35:41.217Z,4.73
2023-01-27T11:38:22.138Z,4.53
2023-01-27T11:40:53.139Z,5.03
2023-01-27T11:43:32.172Z,4.63
2023-01-27T11:46:04.355Z,5.20
2023-01-27T11:48:48.189Z,21.60
2023-01-27T11:51:21.761Z,3.83
2023-01-27T11:54:04.007Z,4.17
2023-01-27T11:56:34.712Z,8.50
2023-01-27T11:59:14.016Z,4.30
2023-01-27T12:01:54.581Z,5.60
2023-01-27T12:04:42.061Z,5.50
2023-01-27T12:07:18.003Z,5.70
2023-01-27T12:09:53.063Z,4.90
2023-01-27T12:12:24.383Z,4.27
2023-01-27T12:15:01.087Z,4.80
2023-01-27T12:17:36.338Z,9.03
2023-01-27T12:20:25.002Z,4.90
2023-01-27T12:22:56.317Z,4.67
2023-01-27T12:25:36.028Z,4.23
2023-01-27T12:28:06.375Z,5.37
2023-01-27T12:30:45.154Z,4.33
2023-01-27T12:33:21.466Z,4.57
2023-01-27T12:35:59.226Z,4.57
2023-01-27T12:38:31.640Z,4.17
2023-01-27T12:41:10.424Z,4.77
2023-01-27T12:43:52.817Z,4.80
2023-01-27T12:46:31.288Z,4.83
2023-01-27T12:49:10.922Z,4.10
2023-01-27T12:51:51.146Z,4.33
2023-01-27T12:54:23.906Z,4.53
2023-01-27T12:57:00.333Z,4.63
2023-01-27T12:59:35.549Z,4.80
2023-01-27T13:02:27.295Z,9.00
2023-01-27T13:04:58.721Z,7.27
2023-01-27T13:07:38.179Z,4.90
2023-01-27T13:10:18.003Z,4.50
2023-01-27T13:12:58.257Z,5.03
2023-01-27T13:15:29.723Z,4.40
2023-01-27T13:18:33.129Z,4.00
2023-01-27T13:21:24.086Z,4.10
2023-01-27T13:23:56.752Z,5.83
2023-01-27T13:26:37.419Z,4.27
2023-01-27T13:29:20.247Z,4.37
2023-01-27T13:31:54.119Z,4.57
2023-01-27T13:34:36.253Z,4.23
2023-01-27T13:37:11.609Z,4.57
2023-01-27T13:40:01.333Z,4.17
2023-01-27T13:42:37.944Z,4.70
2023-01-27T13:45:20.115Z,5.97
2023-01-27T13:47:53.571Z,6.00
2023-01-27T13:50:36.070Z,5.20
2023-01-27T13:53:06.195Z,5.03
2023-01-27T13:56:04.112Z,4.97
2023-01-27T13:58:50.525Z,5.07
2023-01-27T14:01:36.221Z,5.23
2023-01-27T14:04:31.615Z,5.57
2023-01-27T14:07:14.275Z,5.07
2023-01-27T14:09:57.828Z,4.93
2023-01-27T14:12:50.357Z,4.83
2023-01-27T14:15:27.771Z,4.83
2023-01-27T14:18:09.457Z,4.87
2023-01-27T14:21:00.682Z,5.00
2023-01-27T14:23:50.592Z,4.60
2023-01-27T14:26:36.208Z,5.10
2023-01-27T14:29:19.076Z,5.10
2023-01-27T14:32:03.389Z,5.70
2023-01-27T14:34:50.388Z,4.90
2023-01-27T14:37:33.329Z,5.30
2023-01-27T14:40:14.777Z,5.10
2023-01-27T14:42:58.315Z,5.00
2023-01-27T14:45:33.752Z,4.93
2023-01-27T14:48:19.314Z,4.60
2023-01-27T14:50:58.073Z,4.80
2023-01-27T14:53:49.261Z,5.50
2023-01-27T14:56:28.089Z,5.00
2023-01-27T14:59:11.441Z,5.53
2023-01-27T15:01:58.641Z,5.67
2023-01-27T15:04:45.276Z,6.23
2023-01-27T15:07:19.553Z,6.33
2023-01-27T15:10:18.251Z,6.70
2023-01-27T15:13:14.194Z,5.53
2023-01-27T15:16:14.302Z,5.30
2023-01-27T15:19:02.020Z,5.90
2023-01-27T15:22:08.346Z,4.43
2023-01-27T15:25:00.299Z,5.00
2023-01-27T15:27:36.203Z,4.90
2023-01-27T15:30:09.034Z,5.10
2023-01-27T15:32:45.289Z,4.73
2023-01-27T15:35:45.479Z,4.80
2023-01-27T15:38:29.310Z,4.63
2023-01-27T15:41:01.686Z,4.90
2023-01-27T15:43:39.155Z,5.27
2023-01-27T15:46:28.393Z,5.30
2023-01-27T15:49:07.264Z,4.53
2023-01-27T15:51:38.991Z,4.57
2023-01-27T15:54:19.222Z,5.60
2023-01-27T15:56:52.304Z,4.87
2023-01-27T15:59:31.245Z,4.97
2023-01-27T16:02:16.569Z,4.33
2023-01-27T16:04:52.266Z,4.63
2023-01-27T16:07:29.860Z,5.20
2023-01-27T16:10:06.228Z,5.10
2023-01-27T16:12:39.815Z,4.80
2023-01-27T16:15:44.347Z,6.33
2023-01-27T16:18:42.836Z,4.90
2023-01-27T16:21:45.294Z,4.97
2023-01-27T16:24:24.890Z,6.53
2023-01-27T16:27:04.561Z,5.47
2023-01-27T16:29:38.467Z,5.33
2023-01-27T16:32:20.409Z,5.50
2023-01-27T16:34:52.809Z,5.80
2023-01-27T16:37:32.314Z,5.23
2023-01-27T16:40:06.769Z,7.07
2023-01-27T16:42:45.274Z,6.13
2023-01-27T16:45:28.410Z,6.53
2023-01-27T16:48:04.118Z,5.73
2023-01-27T16:50:45.388Z,5.27
2023-01-27T16:53:18.920Z,4.90
2023-01-27T16:56:06.279Z,5.87
2023-01-27T16:58:46.497Z,5.87
2023-01-27T17:01:36.308Z,5.13
2023-01-27T17:04:19.159Z,5.43
2023-01-27T17:06:56.384Z,5.10
2023-01-27T17:09:27.409Z,5.20
2023-01-27T17:12:03.263Z,4.53
2023-01-27T17:14:34.046Z,5.50
2023-01-27T17:17:11.534Z,5.10
2023-01-27T17:19:40.193Z,5.47
2023-01-27T17:22:19.439Z,5.47
2023-01-27T17:24:53.230Z,5.07
2023-01-27T17:27:34.484Z,5.43
2023-01-27T17:30:06.882Z,6.07
2023-01-27T17:32:44.589Z,5.83
2023-01-27T17:35:23.179Z,5.60
2023-01-27T17:37:58.369Z,6.13
2023-01-27T17:40:26.619Z,5.63
2023-01-27T17:42:56.615Z,5.50
2023-01-27T17:45:36.307Z,5.17
2023-01-27T17:48:05.641Z,5.43
2023-01-27T17:50:45.297Z,5.70
2023-01-27T17:53:14.900Z,5.50
2023-01-27T17:55:50.511Z,5.10
2023-01-27T17:58:26.001Z,5.77
2023-01-27T18:01:03.316Z,5.27
2023-01-27T18:03:34.741Z,5.10
2023-01-27T18:06:12.518Z,5.53
2023-01-27T18:08:41.594Z,4.87
2023-01-27T18:11:18.504Z,4.27
2023-01-27T18:13:53.833Z,5.03
2023-01-27T18:16:30.314Z,4.80
2023-01-27T18:19:09.982Z,4.67
2023-01-27T18:21:45.353Z,4.77
2023-01-27T18:24:21.697Z,5.67
2023-01-27T18:26:57.350Z,5.17
2023-01-27T18:29:31.075Z,5.10
2023-01-27T18:32:15.603Z,4.90
2023-01-27T18:34:48.948Z,5.57
2023-01-27T18:37:34.352Z,5.33
2023-01-27T18:40:29.348Z,6.20
2023-01-27T18:42:59.114Z,6.27
2023-01-27T18:45:36.350Z,6.30
2023-01-27T18:48:11.252Z,6.93
2023-01-27T18:50:49.564Z,6.43
2023-01-27T18:53:20.606Z,6.53
2023-01-27T18:55:55.504Z,6.47
2023-01-27T18:58:23.963Z,6.60
2023-01-27T19:01:13.557Z,7.03
2023-01-27T19:03:42.420Z,6.73
2023-01-27T19:06:21.728Z,6.37
2023-01-27T19:08:52.181Z,7.30
2023-01-27T19:11:27.576Z,7.10
2023-01-27T19:13:56.229Z,7.30
2023-01-27T19:16:34.593Z,7.23
2023-01-27T19:19:03.258Z,7.17
2023-01-27T19:21:38.405Z,8.07
2023-01-27T19:24:10.745Z,7.07
2023-01-27T19:26:45.419Z,6.57
2023-01-27T19:29:14.590Z,7.33
2023-01-27T19:31:51.511Z,6.60
2023-01-27T19:34:20.096Z,6.57
2023-01-27T19:36:55.583Z,6.43
2023-01-27T19:39:24.255Z,6.13
2023-01-27T19:41:59.700Z,6.30
2023-01-27T19:44:28.141Z,6.00
2023-01-27T19:47:04.738Z,5.80
2023-01-27T19:49:33.553Z,6.00
2023-01-27T19:52:09.498Z,6.13
2023-01-27T19:54:38.238Z,6.10
2023-01-27T19:57:13.542Z,5.70
2023-01-27T20:00:02.656Z,5.70
2023-01-27T20:02:39.678Z,6.20
2023-01-27T20:05:09.723Z,5.43
2023-01-27T20:07:44.718Z,5.10
2023-01-27T20:10:19.102Z,6.23
2023-01-27T20:13:00.461Z,4.80
2023-01-27T20:15:31.385Z,4.70
2023-01-27T20:18:07.609Z,4.37
2023-01-27T20:20:35.867Z,4.80
2023-01-27T20:23:11.503Z,4.50
2023-01-27T20:25:40.011Z,4.20
2023-01-27T20:28:15.575Z,4.20
2023-01-27T20:30:44.366Z,4.07
2023-01-27T20:33:22.490Z,3.93
2023-01-27T20:35:50.923Z,4.10
2023-01-27T20:38:25.595Z,3.80
2023-01-27T20:40:53.999Z,3.67
2023-01-27T20:43:35.309Z,3.20
2023-01-27T20:46:05.681Z,3.10
2023-01-27T20:48:42.620Z,3.20
2023-01-27T20:51:12.946Z,3.13
2023-01-27T20:53:51.636Z,3.47
2023-01-27T20:56:22.126Z,3.80
2023-01-27T20:58:57.855Z,3.77
2023-01-27T21:01:33.330Z,3.70
2023-01-27T21:04:10.463Z,4.30
2023-01-27T21:06:38.811Z,3.77
2023-01-27T21:09:13.653Z,6.33
2023-01-27T21:11:43.537Z,4.73
2023-01-27T21:14:18.461Z,4.60
2023-01-27T21:16:47.409Z,4.67
2023-01-27T21:19:24.668Z,5.53
2023-01-27T21:21:53.416Z,6.80
2023-01-27T21:24:29.678Z,7.03
2023-01-27T21:26:57.955Z,7.17
2023-01-27T21:29:32.494Z,8.37
2023-01-27T21:32:00.801Z,7.50
2023-01-27T21:34:37.630Z,6.17
2023-01-27T21:37:06.136Z,6.17
2023-01-27T21:39:41.674Z,5.80
2023-01-27T21:42:31.169Z,5.17
2023-01-27T21:45:21.649Z,5.20
2023-01-27T21:47:50.452Z,5.37
2023-01-27T21:50:27.649Z,6.80
2023-01-27T21:52:56.073Z,8.43
2023-01-27T21:55:33.736Z,10.40
2023-01-27T21:58:02.411Z,12.53
2023-01-27T22:00:37.733Z,11.57
2023-01-27T22:03:19.946Z,11.10
2023-01-27T22:05:49.765Z,8.00
2023-01-27T22:08:24.549Z,6.70
2023-01-27T22:10:52.903Z,6.63
2023-01-27T22:13:28.491Z,7.23
2023-01-27T22:15:57.012Z,7.67
2023-01-27T22:18:32.510Z,7.83
2023-01-27T22:21:04.048Z,7.20
2023-01-27T22:23:41.685Z,7.23
2023-01-27T22:26:10.122Z,6.70
2023-01-27T22:28:45.719Z,6.20
2023-01-27T22:31:14.154Z,6.13
2023-01-27T22:33:48.592Z,5.80
2023-01-27T22:36:18.371Z,5.60
2023-01-27T22:38:53.566Z,8.70
2023-01-27T22:41:22.082Z,9.13
2023-01-27T22:43:57.612Z,6.10
2023-01-27T22:46:26.372Z,4.90
2023-01-27T22:49:02.712Z,5.10
2023-01-27T22:51:32.550Z,5.37
2023-01-27T22:54:07.558Z,6.20
2023-01-27T22:56:35.851Z,6.87
2023-01-27T22:59:11.550Z,6.73
2023-01-27T23:01:46.746Z,5.50
2023-01-27T23:04:22.554Z,5.20
2023-01-27T23:06:52.376Z,5.50
2023-01-27T23:09:27.726Z,4.00
2023-01-27T23:11:56.599Z,3.20
2023-01-27T23:14:31.589Z,3.60
2023-01-27T23:17:00.325Z,3.80
2023-01-27T23:19:35.602Z,3.67
2023-01-27T23:22:05.396Z,5.00
2023-01-27T23:24:40.781Z,4.60
2023-01-27T23:27:09.587Z,4.80
2023-01-27T23:29:44.641Z,5.20
2023-01-27T23:32:13.115Z,4.67
2023-01-27T23:34:47.635Z,4.23
2023-01-27T23:37:17.601Z,5.10
2023-01-27T23:39:56.545Z,5.53
2023-01-27T23:42:24.757Z,5.57
2023-01-27T23:44:59.764Z,5.43
2023-01-27T23:47:28.092Z,5.27
2023-01-27T23:50:02.776Z,5.67
2023-01-27T23:52:35.393Z,5.53
2023-01-27T23:55:10.655Z,6.77
2023-01-27T23:57:39.155Z,6.83
